Time;durP1;ratioP1;P1;durP2;ratioP2;P2;SDS_P1;SDS_P2;PMS_P1;PMS_P2;Temp;Humidity;BMP_temperature;BMP_pressure;BME280_temperature;BME280_humidity;BME280_pressure;Samples;Min_cycle;Max_cycle;Signal;HPM_P1;HPM_P2
2021/09/09 00:00:52;;;;;;;;;;;;;;;;;;5042830;28;20104;-74
2021/09/09 00:03:18;;;;;;;;;;;;;;;;;;5025840;28;19905;-74
2021/09/09 00:05:46;;;;;;;;;;;;;;;;;;5043107;28;19956;-74
2021/09/09 00:08:13;;;;;;;;;;;;;;;;;;5039432;28;19905;-75
2021/09/09 00:10:39;;;;;;;;;;;;;;;;;;5043710;28;20017;-74
2021/09/09 00:13:05;;;;;;;;;;;;;;;;;;5040235;28;19933;-74
2021/09/09 00:15:30;;;;;;;;;;;;;;;;;;5037877;28;19911;-74
2021/09/09 00:17:56;;;;;;;;;;;;;;;;;;5047933;28;19944;-74
2021/09/09 00:20:21;;;;;;;;;;;;;;;;;;5038971;28;19928;-73
2021/09/09 00:22:48;;;;;;;;;;;;;;;;;;5042366;28;19977;-74
2021/09/09 00:25:13;;;;;;;;;;;;;;;;;;5072721;28;19940;-74
2021/09/09 00:27:39;;;;;;;;;;;;;;;;;;5041031;28;19909;-75
2021/09/09 00:30:04;;;;;;;;;;;;;;;;;;5043430;28;19964;-75
2021/09/09 00:32:29;;;;;;;;;;;;;;;;;;5040277;28;19905;-75
2021/09/09 00:34:55;;;;;;;;;;;;;;;;;;5075422;28;19913;-72
2021/09/09 00:37:22;;;;;;;;;;;;;;;;;;5040427;28;19909;-74
2021/09/09 00:39:47;;;;;;;;;;;;;;;;;;5036451;28;19921;-74
2021/09/09 00:42:12;;;;;;;;;;;;;;;;;;5043099;28;20072;-74
2021/09/09 00:44:37;;;;;;;;;;;;;;;;;;5055703;28;19924;-75
2021/09/09 00:47:03;;;;;;;;;;;;;;;;;;5043629;28;19925;-74
2021/09/09 00:49:28;;;;;;;;;;;;;;;;;;5054635;28;19909;-75
2021/09/09 00:51:53;;;;;;;;;;;;;;;;;;5053946;28;19921;-75
2021/09/09 00:54:18;;;;;;;;;;;;;;;;;;5044536;28;19943;-70
2021/09/09 00:56:44;;;;;;;;;;;;;;;;;;5061121;28;20022;-71
2021/09/09 00:59:09;;;;;;;;;;;;;;;;;;5043325;28;19926;-74
2021/09/09 01:01:34;;;;;;;;;;;;;;;;;;5052910;28;19912;-74
2021/09/09 01:03:59;;;;;;;;;;;;;;;;;;5038831;28;19955;-74
2021/09/09 01:06:24;;;;;;;;;;;;;;;;;;5051228;28;19913;-75
2021/09/09 01:08:50;;;;;;;;;;;;;;;;;;5071121;28;19905;-74
2021/09/09 01:11:15;;;;;;;;;;;;;;;;;;5042792;28;19905;-74
2021/09/09 01:13:40;;;;;;;;;;;;;;;;;;5035544;28;19906;-74
2021/09/09 01:16:06;;;;;;;;;;;;;;;;;;5065991;28;19905;-75
2021/09/09 01:18:32;;;;;;;;;;;;;;;;;;5043551;28;19912;-74
2021/09/09 01:20:59;;;;;;;;;;;;;;;;;;5036467;28;20071;-74
2021/09/09 01:23:24;;;;;;;;;;;;;;;;;;5044932;28;20048;-74
2021/09/09 01:25:49;;;;;;;;;;;;;;;;;;5052305;28;19932;-74
2021/09/09 01:28:15;;;;;;;;;;;;;;;;;;5038416;28;20259;-74
2021/09/09 01:30:40;;;;;;;;;;;;;;;;;;5043399;28;19906;-74
2021/09/09 01:33:05;;;;;;;;;;;;;;;;;;5037031;28;19905;-75
2021/09/09 01:35:30;;;;;;;;;;;;;;;;;;5045447;28;20102;-75
2021/09/09 01:37:56;;;;;;;;;;;;;;;;;;5059419;28;19912;-74
2021/09/09 01:40:21;;;;;;;;;;;;;;;;;;5038463;28;19932;-74
2021/09/09 01:42:46;;;;;;;;;;;;;;;;;;5041592;28;19973;-74
2021/09/09 01:45:11;;;;;;;;;;;;;;;;;;5035916;28;19914;-74
2021/09/09 01:47:37;;;;;;;;;;;;;;;;;;5040662;28;19928;-74
2021/09/09 01:50:02;;;;;;;;;;;;;;;;;;5041264;28;19916;-75
2021/09/09 01:52:27;;;;;;;;;;;;;;;;;;5037581;28;20165;-74
2021/09/09 01:54:52;;;;;;;;;;;;;;;;;;5040783;28;19924;-75
2021/09/09 01:57:17;;;;;;;;;;;;;;;;;;5035063;28;19913;-75
2021/09/09 01:59:43;;;;;;;;;;;;;;;;;;5041692;28;19908;-74
2021/09/09 02:02:08;;;;;;;;;;;;;;;;;;5041514;28;19941;-70
2021/09/09 02:04:33;;;;;;;;;;;;;;;;;;5035391;28;20083;-73
2021/09/09 02:06:58;;;;;;;;;;;;;;;;;;5042030;28;19997;-74
2021/09/09 02:09:24;;;;;;;;;;;;;;;;;;5032739;28;19928;-74
2021/09/09 02:11:49;;;;;;;;;;;;;;;;;;5073001;28;19911;-74
2021/09/09 02:14:14;;;;;;;;;;;;;;;;;;5036532;28;19950;-75
2021/09/09 02:16:39;;;;;;;;;;;;;;;;;;5053690;28;19968;-74
2021/09/09 02:19:05;;;;;;;;;;;;;;;;;;5040444;28;19913;-74
2021/09/09 02:21:30;;;;;;;;;;;;;;;;;;5036063;28;19913;-74
2021/09/09 02:23:57;;;;;;;;;;;;;;;;;;5041308;28;19913;-74
2021/09/09 02:26:23;;;;;;;;;;;;;;;;;;5068381;28;19913;-74
2021/09/09 02:28:48;;;;;;;;;;;;;;;;;;5033881;28;19937;-74
2021/09/09 02:31:13;;;;;;;;;;;;;;;;;;5039900;28;19905;-74
2021/09/09 02:33:38;;;;;;;;;;;;;;;;;;5033859;28;20064;-75
2021/09/09 02:36:04;;;;;;;;;;;;;;;;;;5039601;28;19902;-75
2021/09/09 02:38:29;;;;;;;;;;;;;;;;;;5067737;28;19905;-75
2021/09/09 02:40:54;;;;;;;;;;;;;;;;;;5035461;28;19972;-75
2021/09/09 02:43:21;;;;;;;;;;;;;;;;;;5042275;28;21485;-74
2021/09/09 02:45:47;;;;;;;;;;;;;;;;;;5035637;28;19913;-73
2021/09/09 02:48:12;;;;;;;;;;;;;;;;;;4964236;28;2121593;-76
2021/09/09 02:50:37;;;;;;;;;;;;;;;;;;5035500;28;19976;-74
2021/09/09 02:53:02;;;;;;;;;;;;;;;;;;5068084;28;19928;-74
2021/09/09 02:55:28;;;;;;;;;;;;;;;;;;5058329;28;19913;-74
2021/09/09 02:57:53;;;;;;;;;;;;;;;;;;5036606;28;19992;-75
2021/09/09 03:00:18;;;;;;;;;;;;;;;;;;5054125;28;19940;-74
2021/09/09 03:02:43;;;;;;;;;;;;;;;;;;5034056;28;20009;-74
2021/09/09 03:05:09;;;;;;;;;;;;;;;;;;5034746;28;19951;-72
2021/09/09 03:07:36;;;;;;;;;;;;;;;;;;5056617;28;19925;-74
2021/09/09 03:10:06;;;;;;;;;;;;;;;;;;5035970;28;19905;-75
2021/09/09 03:12:31;;;;;;;;;;;;;;;;;;5040552;28;19905;-70
2021/09/09 03:14:56;;;;;;;;;;;;;;;;;;5071882;28;19926;-74
2021/09/09 03:17:21;;;;;;;;;;;;;;;;;;5051221;28;19913;-74
2021/09/09 03:19:47;;;;;;;;;;;;;;;;;;5040761;28;19906;-75
2021/09/09 03:22:12;;;;;;;;;;;;;;;;;;5036942;28;19943;-75
2021/09/09 03:24:37;;;;;;;;;;;;;;;;;;5034331;28;19913;-75
2021/09/09 03:27:02;;;;;;;;;;;;;;;;;;5040844;28;19909;-75
2021/09/09 03:29:27;;;;;;;;;;;;;;;;;;5033511;28;19905;-75
2021/09/09 03:31:53;;;;;;;;;;;;;;;;;;5056709;28;19905;-75
2021/09/09 03:34:18;;;;;;;;;;;;;;;;;;5052948;28;19924;-74
2021/09/09 03:36:45;;;;;;;;;;;;;;;;;;5034918;28;19905;-69
2021/09/09 03:39:11;;;;;;;;;;;;;;;;;;5077088;28;19908;-74
2021/09/09 03:41:36;;;;;;;;;;;;;;;;;;5035347;28;19906;-75
2021/09/09 03:44:01;;;;;;;;;;;;;;;;;;5040069;28;19906;-75
2021/09/09 03:46:26;;;;;;;;;;;;;;;;;;5034306;28;19913;-75
2021/09/09 03:48:51;;;;;;;;;;;;;;;;;;5066937;28;19972;-75
2021/09/09 03:51:17;;;;;;;;;;;;;;;;;;5045147;28;19901;-75
2021/09/09 03:53:42;;;;;;;;;;;;;;;;;;5037633;28;19968;-75
2021/09/09 03:56:07;;;;;;;;;;;;;;;;;;5050859;28;19898;-69
2021/09/09 03:58:32;;;;;;;;;;;;;;;;;;5042837;28;20631;-74
2021/09/09 04:00:58;;;;;;;;;;;;;;;;;;5037415;28;19921;-74
2021/09/09 04:03:23;;;;;;;;;;;;;;;;;;5044408;28;19972;-74
2021/09/09 04:05:48;;;;;;;;;;;;;;;;;;5040409;28;19998;-75
2021/09/09 04:08:13;;;;;;;;;;;;;;;;;;5046443;28;19917;-75
2021/09/09 04:10:39;;;;;;;;;;;;;;;;;;5045426;28;19968;-74
2021/09/09 04:13:04;;;;;;;;;;;;;;;;;;5063058;28;19917;-75
2021/09/09 04:15:29;;;;;;;;;;;;;;;;;;5046842;28;20011;-75
2021/09/09 04:17:54;;;;;;;;;;;;;;;;;;5038980;28;19913;-75
2021/09/09 04:20:20;;;;;;;;;;;;;;;;;;5039500;28;19912;-69
2021/09/09 04:22:45;;;;;;;;;;;;;;;;;;5044633;28;19929;-73
2021/09/09 04:25:10;;;;;;;;;;;;;;;;;;5038239;28;20004;-75
2021/09/09 04:27:35;;;;;;;;;;;;;;;;;;5060467;28;19905;-75
2021/09/09 04:30:01;;;;;;;;;;;;;;;;;;5052846;28;19905;-75
2021/09/09 04:32:26;;;;;;;;;;;;;;;;;;5044231;28;19969;-75
2021/09/09 04:34:51;;;;;;;;;;;;;;;;;;5068764;28;19902;-75
2021/09/09 04:37:16;;;;;;;;;;;;;;;;;;5035424;28;20090;-75
2021/09/09 04:39:42;;;;;;;;;;;;;;;;;;5045302;28;19902;-75
2021/09/09 04:42:07;;;;;;;;;;;;;;;;;;5038103;28;19905;-74
2021/09/09 04:44:32;;;;;;;;;;;;;;;;;;5047168;28;19905;-75
2021/09/09 04:46:57;;;;;;;;;;;;;;;;;;5040358;28;20132;-72
2021/09/09 04:49:22;;;;;;;;;;;;;;;;;;5038571;28;19996;-74
2021/09/09 04:51:48;;;;;;;;;;;;;;;;;;5044138;28;19902;-74
2021/09/09 04:54:13;;;;;;;;;;;;;;;;;;5038618;28;19909;-75
2021/09/09 04:56:38;;;;;;;;;;;;;;;;;;5046802;28;19941;-75
2021/09/09 04:59:03;;;;;;;;;;;;;;;;;;5042438;28;19904;-74
2021/09/09 05:01:29;;;;;;;;;;;;;;;;;;5039662;28;19905;-74
2021/09/09 05:03:54;;;;;;;;;;;;;;;;;;5048133;28;19975;-75
2021/09/09 05:06:19;;;;;;;;;;;;;;;;;;5036239;28;19913;-78
2021/09/09 05:08:44;;;;;;;;;;;;;;;;;;5040732;28;19917;-77
2021/09/09 05:11:10;;;;;;;;;;;;;;;;;;5052216;28;20128;-73
2021/09/09 05:13:36;;;;;;;;;;;;;;;;;;5053664;28;19928;-77
2021/09/09 05:16:01;;;;;;;;;;;;;;;;;;5042780;28;19901;-74
2021/09/09 05:18:26;;;;;;;;;;;;;;;;;;5052650;28;19924;-75
2021/09/09 05:20:51;;;;;;;;;;;;;;;;;;5042145;28;19913;-75
2021/09/09 05:23:17;;;;;;;;;;;;;;;;;;5038234;28;19906;-74
2021/09/09 05:25:42;;;;;;;;;;;;;;;;;;5034957;28;19917;-75
2021/09/09 05:28:07;;;;;;;;;;;;;;;;;;5043673;28;19906;-75
2021/09/09 05:30:32;;;;;;;;;;;;;;;;;;5038804;28;19905;-74
2021/09/09 05:32:58;;;;;;;;;;;;;;;;;;5038622;28;19913;-75
2021/09/09 05:35:23;;;;;;;;;;;;;;;;;;5069641;28;19984;-72
2021/09/09 05:37:48;;;;;;;;;;;;;;;;;;5038988;28;21303;-73
2021/09/09 05:40:13;;;;;;;;;;;;;;;;;;5048359;28;19960;-73
2021/09/09 05:42:39;;;;;;;;;;;;;;;;;;5036057;28;19936;-74
2021/09/09 05:45:04;;;;;;;;;;;;;;;;;;5058959;28;19913;-74
2021/09/09 05:47:29;;;;;;;;;;;;;;;;;;5036428;28;19931;-72
2021/09/09 05:49:54;;;;;;;;;;;;;;;;;;5038400;28;19921;-72
2021/09/09 05:52:20;;;;;;;;;;;;;;;;;;5047522;28;19905;-73
2021/09/09 05:54:45;;;;;;;;;;;;;;;;;;5065770;28;20033;-73
2021/09/09 05:57:10;;;;;;;;;;;;;;;;;;5043768;28;19943;-72
2021/09/09 05:59:35;;;;;;;;;;;;;;;;;;5038741;28;19960;-73
2021/09/09 06:02:01;;;;;;;;;;;;;;;;;;5029645;28;19917;-70
2021/09/09 06:04:26;;;;;;;;;;;;;;;;;;5041108;28;19928;-70
2021/09/09 06:06:51;;;;;;;;;;;;;;;;;;5035788;28;19968;-70
2021/09/09 06:09:16;;;;;;;;;;;;;;;;;;5042478;28;19912;-70
2021/09/09 06:11:42;;;;;;;;;;;;;;;;;;5033160;28;19913;-70
2021/09/09 06:14:07;;;;;;;;;;;;;;;;;;5037418;28;19905;-70
2021/09/09 06:16:32;;;;;;;;;;;;;;;;;;5039395;28;19912;-70
2021/09/09 06:18:57;;;;;;;;;;;;;;;;;;5038309;28;19933;-71
2021/09/09 06:21:23;;;;;;;;;;;;;;;;;;5040740;28;19909;-71
2021/09/09 06:23:48;;;;;;;;;;;;;;;;;;5066379;28;19915;-68
2021/09/09 06:26:13;;;;;;;;;;;;;;;;;;5050899;28;19928;-68
2021/09/09 06:28:38;;;;;;;;;;;;;;;;;;5040766;28;19976;-70
2021/09/09 06:31:04;;;;;;;;;;;;;;;;;;5036609;28;19917;-69
2021/09/09 06:33:29;;;;;;;;;;;;;;;;;;5042631;28;19906;-71
2021/09/09 06:35:56;;;;;;;;;;;;;;;;;;5037925;28;20088;-71
2021/09/09 06:38:21;;;;;;;;;;;;;;;;;;5068501;28;19905;-70
2021/09/09 06:40:47;;;;;;;;;;;;;;;;;;5041232;28;19937;-71
2021/09/09 06:43:12;;;;;;;;;;;;;;;;;;5068075;28;19905;-68
2021/09/09 06:45:37;;;;;;;;;;;;;;;;;;5039646;28;21218;-70
2021/09/09 06:48:02;;;;;;;;;;;;;;;;;;5035843;28;19928;-70
2021/09/09 06:50:28;;;;;;;;;;;;;;;;;;5067815;28;19924;-71
2021/09/09 06:52:53;;;;;;;;;;;;;;;;;;5046197;28;19905;-69
2021/09/09 06:55:18;;;;;;;;;;;;;;;;;;5033482;28;19912;-70
2021/09/09 06:57:43;;;;;;;;;;;;;;;;;;5071375;28;19916;-71
2021/09/09 07:00:09;;;;;;;;;;;;;;;;;;5032977;28;19905;-71
2021/09/09 07:02:34;;;;;;;;;;;;;;;;;;5034820;28;20097;-71
2021/09/09 07:05:01;;;;;;;;;;;;;;;;;;5040692;28;19972;-71
2021/09/09 07:07:27;;;;;;;;;;;;;;;;;;5049845;28;19969;-71
2021/09/09 07:09:52;;;;;;;;;;;;;;;;;;5040441;28;19924;-71
2021/09/09 07:12:17;;;;;;;;;;;;;;;;;;5035922;28;19906;-71
2021/09/09 07:14:42;;;;;;;;;;;;;;;;;;5036336;28;19922;-71
2021/09/09 07:17:08;;;;;;;;;;;;;;;;;;5043039;28;20289;-71
2021/09/09 07:19:33;;;;;;;;;;;;;;;;;;5034479;28;19916;-71
2021/09/09 07:21:58;;;;;;;;;;;;;;;;;;5036192;28;19917;-70
2021/09/09 07:24:23;;;;;;;;;;;;;;;;;;5068492;28;19912;-72
2021/09/09 07:26:49;;;;;;;;;;;;;;;;;;5053743;28;20022;-70
2021/09/09 07:29:14;;;;;;;;;;;;;;;;;;5040718;28;19997;-70
2021/09/09 07:31:39;;;;;;;;;;;;;;;;;;5036827;28;20134;-70
2021/09/09 07:34:05;;;;;;;;;;;;;;;;;;5041475;28;19951;-70
2021/09/09 07:36:30;;;;;;;;;;;;;;;;;;5039000;28;19985;-70
2021/09/09 07:38:55;;;;;;;;;;;;;;;;;;5044715;28;19920;-71
2021/09/09 07:41:21;;;;;;;;;;;;;;;;;;5058043;28;19905;-71
2021/09/09 07:43:46;;;;;;;;;;;;;;;;;;5040763;28;19924;-71
2021/09/09 07:46:11;;;;;;;;;;;;;;;;;;5075909;28;19980;-71
2021/09/09 07:48:36;;;;;;;;;;;;;;;;;;5038799;28;19928;-70
2021/09/09 07:51:02;;;;;;;;;;;;;;;;;;5043396;28;19935;-71
2021/09/09 07:53:27;;;;;;;;;;;;;;;;;;5075683;28;19948;-71
2021/09/09 07:55:52;;;;;;;;;;;;;;;;;;5052315;28;19916;-70
2021/09/09 07:58:19;;;;;;;;;;;;;;;;;;5043030;28;20236;-71
2021/09/09 08:00:45;;;;;;;;;;;;;;;;;;5036151;28;19913;-72
2021/09/09 08:03:10;;;;;;;;;;;;;;;;;;5037923;28;19948;-72
2021/09/09 08:05:35;;;;;;;;;;;;;;;;;;5042887;28;19930;-71
2021/09/09 08:08:00;;;;;;;;;;;;;;;;;;5040378;28;19917;-70
2021/09/09 08:10:26;;;;;;;;;;;;;;;;;;5039639;28;19925;-69
2021/09/09 08:12:51;;;;;;;;;;;;;;;;;;5050735;28;19927;-70
2021/09/09 08:15:16;;;;;;;;;;;;;;;;;;5068350;28;19920;-70
2021/09/09 08:17:41;;;;;;;;;;;;;;;;;;5072991;28;19912;-71
2021/09/09 08:20:07;;;;;;;;;;;;;;;;;;5040899;28;19914;-71
2021/09/09 08:22:34;;;;;;;;;;;;;;;;;;5075349;28;19989;-70
2021/09/09 08:24:59;;;;;;;;;;;;;;;;;;5033205;28;19921;-68
2021/09/09 08:27:25;;;;;;;;;;;;;;;;;;5036559;28;20310;-71
2021/09/09 08:29:52;;;;;;;;;;;;;;;;;;5036829;28;19913;-71
2021/09/09 08:32:17;;;;;;;;;;;;;;;;;;5035611;28;19906;-70
2021/09/09 08:34:43;;;;;;;;;;;;;;;;;;5042049;28;19916;-71
2021/09/09 08:37:08;;;;;;;;;;;;;;;;;;5057472;28;19994;-71
2021/09/09 08:39:33;;;;;;;;;;;;;;;;;;5037465;28;19980;-71
2021/09/09 08:41:58;;;;;;;;;;;;;;;;;;5044393;28;19912;-71
2021/09/09 08:44:24;;;;;;;;;;;;;;;;;;5036382;28;20199;-69
2021/09/09 08:46:49;;;;;;;;;;;;;;;;;;5040473;28;19929;-71
2021/09/09 08:49:14;;;;;;;;;;;;;;;;;;5037635;28;19920;-69
2021/09/09 08:51:39;;;;;;;;;;;;;;;;;;5036617;28;19913;-70
2021/09/09 08:54:05;;;;;;;;;;;;;;;;;;5041435;28;19985;-70
2021/09/09 08:56:30;;;;;;;;;;;;;;;;;;5037260;28;19905;-71
2021/09/09 08:58:55;;;;;;;;;;;;;;;;;;5048063;28;19987;-71
2021/09/09 09:01:20;;;;;;;;;;;;;;;;;;5038863;28;19915;-70
2021/09/09 09:03:46;;;;;;;;;;;;;;;;;;5037678;28;19927;-71
2021/09/09 09:06:17;;;;;;;;;;;;;;;;;;5054966;28;19924;-72
2021/09/09 09:08:45;;;;;;;;;;;;;;;;;;5029578;28;20156;-70
2021/09/09 09:11:10;;;;;;;;;;;;;;;;;;5041517;28;21127;-71
2021/09/09 09:13:35;;;;;;;;;;;;;;;;;;5039439;28;19932;-70
2021/09/09 09:16:00;;;;;;;;;;;;;;;;;;5036364;28;20022;-70
2021/09/09 09:18:25;;;;;;;;;;;;;;;;;;5044297;28;20070;-70
2021/09/09 09:20:51;;;;;;;;;;;;;;;;;;5038033;28;19905;-72
2021/09/09 09:23:16;;;;;;;;;;;;;;;;;;5041683;28;20012;-70
2021/09/09 09:25:41;;;;;;;;;;;;;;;;;;5052810;28;19914;-71
2021/09/09 09:28:06;;;;;;;;;;;;;;;;;;5035415;28;19912;-71
2021/09/09 09:30:32;;;;;;;;;;;;;;;;;;5042042;28;19925;-72
2021/09/09 09:32:58;;;;;;;;;;;;;;;;;;5038113;28;19914;-72
2021/09/09 09:35:24;;;;;;;;;;;;;;;;;;5072876;28;19932;-72
2021/09/09 09:37:49;;;;;;;;;;;;;;;;;;5037759;28;19937;-72
2021/09/09 09:40:14;;;;;;;;;;;;;;;;;;5034466;28;19924;-69
2021/09/09 09:42:39;;;;;;;;;;;;;;;;;;5040195;28;20142;-71
2021/09/09 09:45:04;;;;;;;;;;;;;;;;;;5038593;28;19977;-70
2021/09/09 09:47:32;;;;;;;;;;;;;;;;;;5039832;28;19913;-69
2021/09/09 09:49:58;;;;;;;;;;;;;;;;;;5040700;28;19948;-70
2021/09/09 09:52:23;;;;;;;;;;;;;;;;;;5035551;28;19932;-71
2021/09/09 09:54:49;;;;;;;;;;;;;;;;;;5076468;28;19912;-71
2021/09/09 09:57:15;;;;;;;;;;;;;;;;;;5032654;28;19970;-71
2021/09/09 09:59:40;;;;;;;;;;;;;;;;;;5040989;28;19926;-70
2021/09/09 10:02:05;;;;;;;;;;;;;;;;;;5033127;28;19925;-72
2021/09/09 10:04:30;;;;;;;;;;;;;;;;;;5034304;28;19948;-71
2021/09/09 10:06:56;;;;;;;;;;;;;;;;;;5041410;28;19921;-71
2021/09/09 10:09:21;;;;;;;;;;;;;;;;;;5041037;28;19917;-70
2021/09/09 10:11:46;;;;;;;;;;;;;;;;;;5040280;28;19945;-71
2021/09/09 10:14:11;;;;;;;;;;;;;;;;;;5050935;28;19933;-71
2021/09/09 10:16:37;;;;;;;;;;;;;;;;;;5034929;28;19935;-70
2021/09/09 10:19:02;;;;;;;;;;;;;;;;;;5041746;28;19913;-69
2021/09/09 10:21:27;;;;;;;;;;;;;;;;;;5033653;28;19919;-70
2021/09/09 10:23:52;;;;;;;;;;;;;;;;;;5040672;28;19916;-71
2021/09/09 10:26:17;;;;;;;;;;;;;;;;;;5036588;28;19917;-71
2021/09/09 10:28:44;;;;;;;;;;;;;;;;;;5033711;28;19909;-71
2021/09/09 10:31:10;;;;;;;;;;;;;;;;;;5041122;28;19914;-70
2021/09/09 10:33:35;;;;;;;;;;;;;;;;;;5032035;28;19935;-71
2021/09/09 10:36:00;;;;;;;;;;;;;;;;;;5038167;28;19910;-69
2021/09/09 10:38:26;;;;;;;;;;;;;;;;;;5035441;28;19945;-69
2021/09/09 10:40:51;;;;;;;;;;;;;;;;;;5035162;28;19941;-70
2021/09/09 10:43:16;;;;;;;;;;;;;;;;;;5040748;28;19906;-71
2021/09/09 10:45:44;;;;;;;;;;;;;;;;;;5035191;28;19913;-71
2021/09/09 10:48:09;;;;;;;;;;;;;;;;;;5042229;28;19940;-71
2021/09/09 10:50:34;;;;;;;;;;;;;;;;;;5038164;28;19910;-71
2021/09/09 10:53:00;;;;;;;;;;;;;;;;;;5034460;28;19964;-71
2021/09/09 10:55:25;;;;;;;;;;;;;;;;;;5042723;28;19921;-70
2021/09/09 10:57:50;;;;;;;;;;;;;;;;;;5036844;28;20228;-70
2021/09/09 11:00:16;;;;;;;;;;;;;;;;;;5037602;28;19913;-70
2021/09/09 11:02:41;;;;;;;;;;;;;;;;;;5041566;28;19918;-71
2021/09/09 11:05:07;;;;;;;;;;;;;;;;;;5038834;28;19913;-72
2021/09/09 11:07:32;;;;;;;;;;;;;;;;;;5043255;28;19906;-71
2021/09/09 11:09:57;;;;;;;;;;;;;;;;;;5038568;28;19936;-69
2021/09/09 11:12:23;;;;;;;;;;;;;;;;;;5042051;28;19901;-71
2021/09/09 11:14:48;;;;;;;;;;;;;;;;;;5044314;28;19905;-70
2021/09/09 11:17:14;;;;;;;;;;;;;;;;;;5038373;28;19935;-71
2021/09/09 11:19:39;;;;;;;;;;;;;;;;;;5044254;28;19920;-73
2021/09/09 11:22:05;;;;;;;;;;;;;;;;;;5038986;28;19913;-71
2021/09/09 11:24:30;;;;;;;;;;;;;;;;;;5045285;28;19905;-71
2021/09/09 11:26:56;;;;;;;;;;;;;;;;;;5040491;28;19913;-70
2021/09/09 11:29:21;;;;;;;;;;;;;;;;;;5040913;28;19931;-70
2021/09/09 11:31:46;;;;;;;;;;;;;;;;;;5047362;28;19952;-71
2021/09/09 11:34:12;;;;;;;;;;;;;;;;;;5038834;28;19945;-70
2021/09/09 11:36:37;;;;;;;;;;;;;;;;;;5037579;28;19945;-72
2021/09/09 11:39:02;;;;;;;;;;;;;;;;;;5044808;28;19937;-72
2021/09/09 11:41:28;;;;;;;;;;;;;;;;;;5044683;28;19972;-71
2021/09/09 11:43:53;;;;;;;;;;;;;;;;;;5041674;28;19973;-73
2021/09/09 11:46:19;;;;;;;;;;;;;;;;;;5059688;28;19928;-70
2021/09/09 11:48:46;;;;;;;;;;;;;;;;;;5038560;28;20236;-71
2021/09/09 11:51:11;;;;;;;;;;;;;;;;;;5043876;28;19919;-72
2021/09/09 11:53:36;;;;;;;;;;;;;;;;;;5037705;28;19914;-73
2021/09/09 11:56:02;;;;;;;;;;;;;;;;;;5044168;28;19916;-73
2021/09/09 11:58:27;;;;;;;;;;;;;;;;;;5037775;28;19912;-73
2021/09/09 12:00:52;;;;;;;;;;;;;;;;;;5038807;28;19905;-73
2021/09/09 12:03:17;;;;;;;;;;;;;;;;;;5043379;28;19906;-73
2021/09/09 12:05:43;;;;;;;;;;;;;;;;;;5071364;28;20039;-70
2021/09/09 12:08:08;;;;;;;;;;;;;;;;;;5044031;28;19925;-72
2021/09/09 12:10:33;;;;;;;;;;;;;;;;;;5068375;28;19916;-74
2021/09/09 12:12:59;;;;;;;;;;;;;;;;;;5037192;28;19992;-71
2021/09/09 12:15:25;;;;;;;;;;;;;;;;;;5040840;28;19909;-72
2021/09/09 12:17:50;;;;;;;;;;;;;;;;;;5037987;28;19944;-72
2021/09/09 12:20:15;;;;;;;;;;;;;;;;;;5045326;28;19913;-72
2021/09/09 12:22:40;;;;;;;;;;;;;;;;;;5029910;28;19921;-70
2021/09/09 12:25:05;;;;;;;;;;;;;;;;;;5028178;28;19925;-71
2021/09/09 12:27:31;;;;;;;;;;;;;;;;;;5033527;28;19905;-69
2021/09/09 12:29:56;;;;;;;;;;;;;;;;;;5026698;28;19952;-72
2021/09/09 12:32:22;;;;;;;;;;;;;;;;;;5038132;28;19905;-71
2021/09/09 12:34:48;;;;;;;;;;;;;;;;;;5025909;28;20222;-71
2021/09/09 12:37:14;;;;;;;;;;;;;;;;;;5029962;28;19945;-71
2021/09/09 12:39:39;;;;;;;;;;;;;;;;;;5034747;28;19920;-73
2021/09/09 12:42:04;;;;;;;;;;;;;;;;;;5028393;28;19996;-71
2021/09/09 12:44:30;;;;;;;;;;;;;;;;;;5035440;28;20131;-67
2021/09/09 12:46:55;;;;;;;;;;;;;;;;;;5027485;28;19949;-70
2021/09/09 12:49:21;;;;;;;;;;;;;;;;;;5026517;28;19957;-72
2021/09/09 12:51:46;;;;;;;;;;;;;;;;;;5035450;28;19914;-71
2021/09/09 12:54:11;;;;;;;;;;;;;;;;;;5020412;28;20041;-72
2021/09/09 12:56:37;;;;;;;;;;;;;;;;;;5036647;28;19905;-72
2021/09/09 12:59:02;;;;;;;;;;;;;;;;;;5028390;28;19909;-74
2021/09/09 13:01:27;;;;;;;;;;;;;;;;;;5042797;28;19914;-72
2021/09/09 13:03:55;;;;;;;;;;;;;;;;;;5034017;28;20094;-71
2021/09/09 13:06:20;;;;;;;;;;;;;;;;;;5025436;28;20268;-72
2021/09/09 13:08:45;;;;;;;;;;;;;;;;;;5019296;28;19905;-75
2021/09/09 13:11:10;;;;;;;;;;;;;;;;;;5029315;28;19927;-75
2021/09/09 13:13:36;;;;;;;;;;;;;;;;;;5022654;28;19925;-75
2021/09/09 13:16:01;;;;;;;;;;;;;;;;;;5027012;28;19914;-74
2021/09/09 13:18:26;;;;;;;;;;;;;;;;;;5039128;28;19924;-75
2021/09/09 13:20:51;;;;;;;;;;;;;;;;;;5048315;28;19980;-74
2021/09/09 13:23:16;;;;;;;;;;;;;;;;;;5039208;28;19909;-74
2021/09/09 13:25:42;;;;;;;;;;;;;;;;;;5039078;28;19925;-71
2021/09/09 13:28:08;;;;;;;;;;;;;;;;;;5051225;28;19909;-70
2021/09/09 13:30:33;;;;;;;;;;;;;;;;;;5035807;28;19991;-73
2021/09/09 13:32:58;;;;;;;;;;;;;;;;;;5043730;28;19936;-73
2021/09/09 13:35:24;;;;;;;;;;;;;;;;;;5040656;28;19944;-74
2021/09/09 13:37:49;;;;;;;;;;;;;;;;;;5036406;28;20065;-75
2021/09/09 13:40:14;;;;;;;;;;;;;;;;;;5041259;28;19901;-74
2021/09/09 13:42:39;;;;;;;;;;;;;;;;;;5034584;28;19948;-74
2021/09/09 13:45:07;;;;;;;;;;;;;;;;;;5041770;28;19944;-74
2021/09/09 13:47:32;;;;;;;;;;;;;;;;;;5038662;28;19918;-74
2021/09/09 13:49:58;;;;;;;;;;;;;;;;;;5038676;28;19968;-74
2021/09/09 13:52:23;;;;;;;;;;;;;;;;;;5042815;28;19906;-74
2021/09/09 13:54:48;;;;;;;;;;;;;;;;;;5036495;28;19985;-74
2021/09/09 13:57:13;;;;;;;;;;;;;;;;;;5044564;28;19961;-75
2021/09/09 13:59:39;;;;;;;;;;;;;;;;;;5040181;28;19936;-74
2021/09/09 14:02:04;;;;;;;;;;;;;;;;;;5039541;28;19920;-74
2021/09/09 14:04:29;;;;;;;;;;;;;;;;;;5038539;28;20980;-74
2021/09/09 14:06:55;;;;;;;;;;;;;;;;;;5037399;28;19945;-73
2021/09/09 14:09:20;;;;;;;;;;;;;;;;;;5025059;28;19930;-73
2021/09/09 14:11:45;;;;;;;;;;;;;;;;;;5028534;28;19905;-73
2021/09/09 14:14:11;;;;;;;;;;;;;;;;;;5039440;28;20138;-73
2021/09/09 14:16:36;;;;;;;;;;;;;;;;;;5040630;28;19953;-77
2021/09/09 14:19:01;;;;;;;;;;;;;;;;;;5041420;28;19943;-76
2021/09/09 14:21:26;;;;;;;;;;;;;;;;;;5043716;28;20013;-74
2021/09/09 14:23:56;;;;;;;;;;;;;;;;;;5048522;28;20460;-71
2021/09/09 14:26:21;;;;;;;;;;;;;;;;;;5043553;28;19977;-75
2021/09/09 14:28:47;;;;;;;;;;;;;;;;;;5034813;28;19913;-75
2021/09/09 14:31:15;;;;;;;;;;;;;;;;;;5043733;28;19924;-75
2021/09/09 14:33:40;;;;;;;;;;;;;;;;;;5028487;28;19932;-71
2021/09/09 14:36:08;;;;;;;;;;;;;;;;;;5037628;28;19912;-75
2021/09/09 14:38:33;;;;;;;;;;;;;;;;;;5041964;28;19945;-75
2021/09/09 14:40:58;;;;;;;;;;;;;;;;;;5070893;28;20121;-74
2021/09/09 14:43:23;;;;;;;;;;;;;;;;;;5044477;28;19943;-75
2021/09/09 14:45:49;;;;;;;;;;;;;;;;;;5040039;28;19937;-75
2021/09/09 14:48:14;;;;;;;;;;;;;;;;;;5042823;28;19912;-75
2021/09/09 14:50:39;;;;;;;;;;;;;;;;;;5043194;28;19966;-70
2021/09/09 14:53:05;;;;;;;;;;;;;;;;;;5037641;28;20247;-73
2021/09/09 14:55:30;;;;;;;;;;;;;;;;;;5041331;28;19906;-75
2021/09/09 14:57:55;;;;;;;;;;;;;;;;;;5036479;28;19937;-72
2021/09/09 15:00:21;;;;;;;;;;;;;;;;;;5037275;28;19912;-76
2021/09/09 15:02:46;;;;;;;;;;;;;;;;;;5035928;28;19988;-78
2021/09/09 15:05:11;;;;;;;;;;;;;;;;;;5036747;28;19948;-81
2021/09/09 15:07:36;;;;;;;;;;;;;;;;;;5056297;28;19968;-79
2021/09/09 15:10:02;;;;;;;;;;;;;;;;;;5067045;28;19913;-78
2021/09/09 15:12:27;;;;;;;;;;;;;;;;;;5029386;28;19906;-73
2021/09/09 15:14:52;;;;;;;;;;;;;;;;;;5032408;28;19917;-72
2021/09/09 15:17:17;;;;;;;;;;;;;;;;;;5026602;28;20022;-73
2021/09/09 15:19:43;;;;;;;;;;;;;;;;;;5030888;28;19920;-74
2021/09/09 15:22:08;;;;;;;;;;;;;;;;;;5037060;28;19905;-72
2021/09/09 15:24:33;;;;;;;;;;;;;;;;;;5035531;28;20129;-73
2021/09/09 15:26:58;;;;;;;;;;;;;;;;;;5040938;28;19945;-72
2021/09/09 15:29:24;;;;;;;;;;;;;;;;;;5037496;28;19920;-72
2021/09/09 15:31:49;;;;;;;;;;;;;;;;;;5046176;28;20329;-72
2021/09/09 15:34:14;;;;;;;;;;;;;;;;;;5037134;28;19905;-72
2021/09/09 15:36:42;;;;;;;;;;;;;;;;;;5029202;28;19919;-73
2021/09/09 15:39:08;;;;;;;;;;;;;;;;;;5035271;28;19906;-71
2021/09/09 15:41:33;;;;;;;;;;;;;;;;;;5028489;28;19915;-72
2021/09/09 15:43:58;;;;;;;;;;;;;;;;;;5036220;28;19921;-72
2021/09/09 15:46:24;;;;;;;;;;;;;;;;;;5031823;28;19914;-72
2021/09/09 15:48:49;;;;;;;;;;;;;;;;;;5033356;28;19940;-72
2021/09/09 15:51:15;;;;;;;;;;;;;;;;;;5035920;28;19913;-72
2021/09/09 15:53:42;;;;;;;;;;;;;;;;;;5033532;28;20036;-72
2021/09/09 15:56:07;;;;;;;;;;;;;;;;;;5033866;28;19940;-72
2021/09/09 15:58:35;;;;;;;;;;;;;;;;;;5029981;28;19913;-71
2021/09/09 16:01:00;;;;;;;;;;;;;;;;;;5035069;28;19913;-72
2021/09/09 16:03:25;;;;;;;;;;;;;;;;;;5037262;28;19948;-71
2021/09/09 16:05:50;;;;;;;;;;;;;;;;;;5030852;28;19939;-70
2021/09/09 16:08:15;;;;;;;;;;;;;;;;;;5034281;28;19917;-71
2021/09/09 16:10:41;;;;;;;;;;;;;;;;;;5030993;28;19999;-71
2021/09/09 16:13:06;;;;;;;;;;;;;;;;;;5028369;28;19906;-71
2021/09/09 16:15:31;;;;;;;;;;;;;;;;;;5036300;28;19955;-72
2021/09/09 16:17:58;;;;;;;;;;;;;;;;;;5028112;28;19914;-71
2021/09/09 16:20:23;;;;;;;;;;;;;;;;;;5030218;28;19913;-72
2021/09/09 16:22:48;;;;;;;;;;;;;;;;;;5051870;28;19905;-72
2021/09/09 16:25:13;;;;;;;;;;;;;;;;;;5051885;28;19948;-72
2021/09/09 16:27:38;;;;;;;;;;;;;;;;;;5042742;28;19988;-70
2021/09/09 16:30:04;;;;;;;;;;;;;;;;;;5038158;28;19924;-71
2021/09/09 16:32:29;;;;;;;;;;;;;;;;;;5074876;28;19928;-71